createdAt,value
2017-09-03T00:00:32.477Z,90.24
2017-09-03T00:03:00.201Z,89.19
2017-09-03T00:05:27.954Z,89.76
2017-09-03T00:07:55.706Z,90.59
2017-09-03T00:10:23.386Z,90.92
2017-09-03T00:12:51.078Z,90.56
2017-09-03T00:15:18.937Z,89.98
2017-09-03T00:17:46.620Z,90.30
2017-09-03T00:20:14.358Z,90.38
2017-09-03T00:22:42.188Z,90.65
2017-09-03T00:25:09.904Z,90.20
2017-09-03T00:27:37.631Z,89.87
2017-09-03T00:30:05.399Z,89.99
2017-09-03T00:32:33.111Z,89.70
2017-09-03T00:35:00.899Z,89.37
2017-09-03T00:37:28.570Z,89.82
2017-09-03T00:39:56.311Z,89.72
2017-09-03T00:42:24.019Z,89.54
2017-09-03T00:44:51.727Z,89.40
2017-09-03T00:47:19.461Z,89.68
2017-09-03T00:49:47.242Z,88.81
2017-09-03T00:52:14.969Z,89.59
2017-09-03T00:54:42.780Z,90.76
2017-09-03T00:57:10.498Z,89.31
2017-09-03T00:59:38.241Z,89.89
2017-09-03T01:02:05.922Z,89.82
2017-09-03T01:04:33.672Z,88.77
2017-09-03T01:07:01.459Z,89.49
2017-09-03T01:09:29.182Z,89.66
2017-09-03T01:11:57.604Z,89.25
2017-09-03T01:14:25.456Z,89.57
2017-09-03T01:16:53.152Z,89.46
2017-09-03T01:19:21.035Z,85.18
2017-09-03T01:21:48.795Z,86.74
2017-09-03T01:24:16.517Z,88.71
2017-09-03T01:26:44.288Z,89.75
2017-09-03T01:29:12.069Z,88.02
2017-09-03T01:31:39.774Z,86.65
2017-09-03T01:34:07.508Z,88.88
2017-09-03T01:36:35.241Z,87.38
2017-09-03T01:39:02.989Z,87.19
2017-09-03T01:41:30.679Z,88.56
2017-09-03T01:43:58.418Z,89.76
2017-09-03T01:46:26.129Z,90.83
2017-09-03T01:48:53.879Z,90.07
2017-09-03T01:51:21.561Z,88.28
2017-09-03T01:53:49.383Z,88.86
2017-09-03T01:56:17.108Z,90.27
2017-09-03T01:58:44.861Z,89.55
2017-09-03T02:01:12.552Z,91.07
2017-09-03T02:03:40.286Z,87.77
2017-09-03T02:06:08.082Z,89.20
2017-09-03T02:08:35.773Z,88.32
2017-09-03T02:11:03.496Z,87.96
2017-09-03T02:13:31.190Z,87.74
2017-09-03T02:15:59.077Z,90.25
2017-09-03T02:18:26.739Z,88.84
2017-09-03T02:20:54.426Z,87.66
2017-09-03T02:23:22.136Z,87.50
2017-09-03T02:25:49.835Z,89.11
2017-09-03T02:28:17.619Z,90.07
2017-09-03T02:30:45.336Z,89.33
2017-09-03T02:33:13.098Z,89.99
2017-09-03T02:35:40.903Z,90.69
2017-09-03T02:38:08.580Z,90.34
2017-09-03T02:40:36.340Z,91.48
2017-09-03T02:43:04.026Z,89.12
2017-09-03T02:45:31.710Z,90.12
2017-09-03T02:47:59.453Z,90.07
2017-09-03T02:50:27.239Z,90.47
2017-09-03T02:52:54.973Z,89.96
2017-09-03T02:55:22.764Z,90.56
2017-09-03T02:57:50.455Z,89.90
2017-09-03T03:00:18.258Z,90.59
2017-09-03T03:02:45.948Z,91.47
2017-09-03T03:05:13.645Z,88.16
2017-09-03T03:07:42.300Z,88.82
2017-09-03T03:10:10.052Z,87.77
2017-09-03T03:12:37.787Z,88.70
2017-09-03T03:15:05.470Z,88.21
2017-09-03T03:17:33.145Z,88.34
2017-09-03T03:20:00.935Z,89.85
2017-09-03T03:22:28.648Z,88.13
2017-09-03T03:24:56.346Z,88.28
2017-09-03T03:27:24.160Z,87.74
2017-09-03T03:29:51.966Z,88.62
2017-09-03T03:32:19.670Z,88.17
2017-09-03T03:34:47.381Z,87.13
2017-09-03T03:37:15.244Z,87.17
2017-09-03T03:39:43.024Z,87.76
2017-09-03T03:42:10.751Z,87.95
2017-09-03T03:44:38.425Z,88.12
2017-09-03T03:47:06.144Z,88.24
2017-09-03T03:49:33.853Z,87.80
2017-09-03T03:52:01.548Z,90.07
2017-09-03T03:54:29.287Z,90.33
2017-09-03T03:56:56.975Z,90.62
2017-09-03T03:59:24.676Z,89.41
2017-09-03T04:01:52.421Z,90.77
2017-09-03T04:04:20.104Z,90.87
2017-09-03T04:06:47.858Z,91.22
2017-09-03T04:09:15.584Z,90.81
2017-09-03T04:11:43.298Z,91.42
2017-09-03T04:14:10.995Z,91.58
2017-09-03T04:16:38.717Z,91.46
2017-09-03T04:19:06.440Z,91.01
2017-09-03T04:21:34.238Z,91.05
2017-09-03T04:24:01.914Z,90.78
2017-09-03T04:26:29.645Z,90.36
2017-09-03T04:28:57.371Z,90.35
2017-09-03T04:31:25.706Z,89.85
2017-09-03T04:33:53.438Z,90.05
2017-09-03T04:36:21.486Z,89.84
2017-09-03T04:38:49.224Z,90.80
2017-09-03T04:41:16.941Z,90.53
2017-09-03T04:43:44.709Z,90.15
2017-09-03T04:46:12.417Z,89.88
2017-09-03T04:48:40.149Z,89.98
2017-09-03T04:51:07.830Z,89.99
2017-09-03T04:53:35.550Z,90.08
2017-09-03T04:56:03.302Z,91.25
2017-09-03T04:58:31.064Z,91.28
2017-09-03T05:00:58.829Z,90.87
2017-09-03T05:03:26.535Z,90.18
2017-09-03T05:05:54.237Z,90.04
2017-09-03T05:08:21.965Z,90.89
2017-09-03T05:10:49.868Z,90.17
2017-09-03T05:13:17.587Z,90.03
2017-09-03T05:15:45.281Z,89.78
2017-09-03T05:18:13.059Z,89.39
2017-09-03T05:20:40.799Z,89.63
2017-09-03T05:23:08.527Z,90.55
2017-09-03T05:25:36.251Z,90.98
2017-09-03T05:28:03.957Z,92.00
2017-09-03T05:30:31.699Z,91.86
2017-09-03T05:32:59.430Z,90.72
2017-09-03T05:35:27.193Z,91.77
2017-09-03T05:37:54.905Z,91.35
2017-09-03T05:40:23.296Z,90.30
2017-09-03T05:42:52.406Z,89.73
2017-09-03T05:45:20.127Z,91.18
2017-09-03T05:47:47.830Z,91.68
2017-09-03T05:50:15.588Z,90.70
2017-09-03T05:52:43.315Z,90.71
2017-09-03T05:55:11.000Z,91.27
2017-09-03T05:57:38.740Z,90.83
2017-09-03T06:00:07.125Z,90.89
2017-09-03T06:02:34.838Z,91.04
2017-09-03T06:05:03.104Z,90.61
2017-09-03T06:07:30.828Z,88.72
2017-09-03T06:09:58.611Z,89.01
2017-09-03T06:12:26.378Z,89.78
2017-09-03T06:14:54.093Z,89.86
2017-09-03T06:17:21.850Z,91.15
2017-09-03T06:19:49.540Z,91.02
2017-09-03T06:22:17.267Z,90.65
2017-09-03T06:24:45.045Z,89.01
2017-09-03T06:27:12.767Z,89.40
2017-09-03T06:29:40.474Z,88.44
2017-09-03T06:32:08.202Z,88.06
2017-09-03T06:34:35.894Z,87.53
2017-09-03T06:37:03.593Z,88.37
2017-09-03T06:39:31.486Z,88.72
2017-09-03T06:41:59.194Z,88.22
2017-09-03T06:44:26.954Z,86.71
2017-09-03T06:46:54.674Z,88.20
2017-09-03T06:49:22.389Z,88.56
2017-09-03T06:51:50.174Z,88.16
2017-09-03T06:54:18.653Z,88.22
2017-09-03T06:56:47.149Z,88.30
2017-09-03T06:59:14.900Z,89.53
2017-09-03T07:01:42.596Z,87.70
2017-09-03T07:04:10.445Z,89.03
2017-09-03T07:06:38.129Z,88.65
2017-09-03T07:09:05.831Z,88.27
2017-09-03T07:11:33.633Z,88.11
2017-09-03T07:14:01.335Z,86.78
2017-09-03T07:16:29.113Z,87.45
2017-09-03T07:18:59.438Z,88.60
2017-09-03T07:21:28.371Z,86.68
2017-09-03T07:23:56.233Z,86.47
2017-09-03T07:26:24.948Z,87.78
2017-09-03T07:28:52.715Z,85.83
2017-09-03T07:31:20.411Z,86.74
2017-09-03T07:33:48.152Z,86.95
2017-09-03T07:36:15.943Z,87.26
2017-09-03T07:38:43.666Z,87.26
2017-09-03T07:41:12.302Z,85.63
2017-09-03T07:43:40.076Z,85.28
2017-09-03T07:46:07.798Z,87.48
2017-09-03T07:48:35.538Z,85.96
2017-09-03T07:51:03.279Z,86.28
2017-09-03T07:53:31.030Z,87.49
2017-09-03T07:55:58.872Z,85.62
2017-09-03T07:58:26.597Z,84.29
2017-09-03T08:00:54.282Z,84.39
2017-09-03T08:03:22.033Z,85.79
2017-09-03T08:05:49.844Z,85.80
2017-09-03T08:08:17.633Z,87.70
2017-09-03T08:10:45.343Z,86.82
2017-09-03T08:13:13.087Z,86.98
2017-09-03T08:15:40.831Z,83.69
2017-09-03T08:18:08.597Z,86.48
2017-09-03T08:20:36.378Z,83.64
2017-09-03T08:23:04.097Z,82.23
2017-09-03T08:25:31.825Z,84.76
2017-09-03T08:27:59.586Z,86.27
2017-09-03T08:30:27.432Z,87.06
2017-09-03T08:32:55.197Z,82.56
2017-09-03T08:35:23.014Z,85.45
2017-09-03T08:37:50.867Z,88.18
2017-09-03T08:40:19.374Z,85.95
2017-09-03T08:42:47.183Z,85.26
2017-09-03T08:45:14.988Z,84.87
2017-09-03T08:47:42.811Z,86.03
2017-09-03T08:50:10.605Z,87.04
2017-09-03T08:52:38.385Z,87.80
2017-09-03T08:55:06.283Z,87.36
2017-09-03T08:57:34.113Z,86.93
2017-09-03T09:00:01.855Z,86.24
2017-09-03T09:02:29.654Z,85.71
2017-09-03T09:04:57.419Z,86.02
2017-09-03T09:07:25.124Z,86.15
2017-09-03T09:09:53.102Z,85.06
2017-09-03T09:12:20.787Z,86.54
2017-09-03T09:14:48.563Z,84.82
2017-09-03T09:17:16.325Z,86.02
2017-09-03T09:19:44.081Z,82.20
2017-09-03T09:22:11.872Z,84.54
2017-09-03T09:24:39.833Z,84.15
2017-09-03T09:27:07.656Z,84.09
2017-09-03T09:29:35.504Z,86.05
2017-09-03T09:32:03.825Z,83.05
2017-09-03T09:34:31.580Z,82.36
2017-09-03T09:36:59.351Z,84.23
2017-09-03T09:39:27.705Z,80.50
2017-09-03T09:41:55.547Z,83.60
2017-09-03T09:44:23.290Z,85.58
2017-09-03T09:46:51.168Z,86.23
2017-09-03T09:49:19.844Z,84.92
2017-09-03T09:51:47.702Z,85.41
2017-09-03T09:54:15.560Z,83.41
2017-09-03T09:56:43.302Z,84.93
2017-09-03T09:59:11.080Z,86.50
2017-09-03T10:01:38.853Z,86.29
2017-09-03T10:04:06.592Z,84.58
2017-09-03T10:06:34.334Z,86.10
2017-09-03T10:09:02.109Z,85.70
2017-09-03T10:11:29.817Z,86.34
2017-09-03T10:13:57.606Z,86.53
2017-09-03T10:16:25.378Z,86.25
2017-09-03T10:18:53.145Z,85.25
2017-09-03T10:21:21.078Z,82.70
2017-09-03T10:23:48.915Z,81.44
2017-09-03T10:26:16.618Z,84.42
2017-09-03T10:28:44.381Z,80.23
2017-09-03T10:31:12.108Z,83.55
2017-09-03T10:33:39.816Z,85.56
2017-09-03T10:36:07.642Z,86.05
2017-09-03T10:38:35.357Z,85.28
2017-09-03T10:41:03.059Z,84.83
2017-09-03T10:43:30.814Z,80.60
2017-09-03T10:45:58.507Z,80.76
2017-09-03T10:48:26.297Z,81.84
2017-09-03T10:50:54.101Z,81.71
2017-09-03T10:53:21.801Z,82.77
2017-09-03T10:55:49.580Z,84.98
2017-09-03T10:58:17.495Z,82.11
2017-09-03T11:00:45.214Z,82.31
2017-09-03T11:03:14.141Z,83.08
2017-09-03T11:05:41.968Z,80.15
2017-09-03T11:08:09.683Z,80.90
2017-09-03T11:10:37.440Z,81.76
2017-09-03T11:13:05.512Z,81.13
2017-09-03T11:15:33.508Z,82.80
2017-09-03T11:18:02.031Z,80.62
2017-09-03T11:20:29.901Z,82.35
2017-09-03T11:22:57.621Z,80.07
2017-09-03T11:25:25.341Z,81.59
2017-09-03T11:27:54.692Z,82.62
2017-09-03T11:30:22.434Z,83.14
2017-09-03T11:32:50.241Z,84.23
2017-09-03T11:35:18.016Z,84.98
2017-09-03T11:37:45.812Z,84.17
2017-09-03T11:40:13.619Z,84.01
2017-09-03T11:42:41.413Z,82.85
2017-09-03T11:45:09.179Z,82.66
2017-09-03T11:47:36.928Z,82.98
2017-09-03T11:50:06.797Z,84.09
2017-09-03T11:52:34.489Z,81.79
2017-09-03T11:55:02.249Z,83.50
2017-09-03T11:57:30.207Z,79.74
2017-09-03T11:59:57.933Z,78.75
2017-09-03T12:02:25.920Z,80.79
2017-09-03T12:04:53.636Z,81.14
2017-09-03T12:07:21.417Z,82.06
2017-09-03T12:09:49.197Z,82.40
2017-09-03T12:12:17.376Z,79.87
2017-09-03T12:14:45.115Z,78.83
2017-09-03T12:17:12.865Z,79.16
2017-09-03T12:19:40.644Z,78.01
2017-09-03T12:22:08.646Z,81.02
2017-09-03T12:24:36.999Z,81.20
2017-09-03T12:27:04.791Z,80.79
2017-09-03T12:29:32.538Z,80.11
2017-09-03T12:32:00.265Z,79.24
2017-09-03T12:34:28.159Z,80.10
2017-09-03T12:36:55.979Z,78.60
2017-09-03T12:39:23.720Z,79.48
2017-09-03T12:41:51.462Z,77.69
2017-09-03T12:44:19.228Z,77.82
2017-09-03T12:46:46.997Z,77.48
2017-09-03T12:49:14.752Z,77.96
2017-09-03T12:51:42.488Z,76.12
2017-09-03T12:54:10.194Z,74.79
2017-09-03T12:56:38.000Z,73.76
2017-09-03T12:59:05.720Z,74.35
2017-09-03T13:01:33.593Z,74.18
2017-09-03T13:04:01.421Z,74.27
2017-09-03T13:06:29.342Z,73.65
2017-09-03T13:08:58.095Z,76.30
2017-09-03T13:11:25.894Z,73.80
2017-09-03T13:13:53.703Z,75.01
2017-09-03T13:16:21.625Z,74.82
2017-09-03T13:18:49.405Z,74.25
2017-09-03T13:21:17.269Z,76.53
2017-09-03T13:23:45.176Z,70.84
2017-09-03T13:26:12.963Z,73.00
2017-09-03T13:28:40.847Z,71.54
2017-09-03T13:31:09.694Z,71.67
2017-09-03T13:33:37.439Z,71.56
2017-09-03T13:36:05.248Z,71.54
2017-09-03T13:38:33.058Z,68.76
2017-09-03T13:41:00.861Z,71.56
2017-09-03T13:43:28.565Z,71.71
2017-09-03T13:45:56.327Z,72.73
2017-09-03T13:48:24.111Z,72.64
2017-09-03T13:50:51.841Z,71.47
2017-09-03T13:53:19.596Z,70.57
2017-09-03T13:55:47.435Z,69.82
2017-09-03T13:58:15.202Z,69.51
2017-09-03T14:00:44.895Z,68.14
2017-09-03T14:03:12.882Z,70.81
2017-09-03T14:05:41.574Z,70.41
2017-09-03T14:08:09.391Z,71.00
2017-09-03T14:10:37.179Z,69.23
2017-09-03T14:13:04.904Z,70.81
2017-09-03T14:15:32.668Z,68.71
2017-09-03T14:18:00.504Z,70.56
2017-09-03T14:20:28.323Z,69.67
2017-09-03T14:22:56.068Z,71.04
2017-09-03T14:25:23.847Z,69.90
2017-09-03T14:27:51.722Z,67.73
2017-09-03T14:30:19.513Z,72.10
2017-09-03T14:32:47.196Z,69.86
2017-09-03T14:35:15.061Z,70.17
2017-09-03T14:37:42.803Z,67.73
2017-09-03T14:40:10.578Z,71.19
2017-09-03T14:42:38.446Z,70.16
2017-09-03T14:45:06.344Z,70.82
2017-09-03T14:47:34.175Z,68.71
2017-09-03T14:50:01.943Z,68.08
2017-09-03T14:52:30.783Z,70.13
2017-09-03T14:54:58.537Z,68.15
2017-09-03T14:57:26.268Z,68.68
2017-09-03T14:59:54.020Z,70.10
2017-09-03T15:02:21.836Z,68.57
2017-09-03T15:04:49.676Z,68.68
2017-09-03T15:07:17.540Z,70.16
2017-09-03T15:09:45.314Z,71.50
2017-09-03T15:12:13.078Z,69.69
2017-09-03T15:14:40.811Z,69.48
2017-09-03T15:17:08.561Z,69.54
2017-09-03T15:19:36.499Z,70.33
2017-09-03T15:22:04.325Z,69.43
2017-09-03T15:24:32.160Z,70.63
2017-09-03T15:26:59.973Z,69.84
2017-09-03T15:29:27.724Z,70.03
2017-09-03T15:31:55.500Z,71.76
2017-09-03T15:34:23.540Z,69.19
2017-09-03T15:36:51.264Z,70.95
2017-09-03T15:39:19.295Z,70.41
2017-09-03T15:41:47.217Z,69.83
2017-09-03T15:44:14.961Z,69.83
2017-09-03T15:46:42.793Z,70.11
2017-09-03T15:49:10.556Z,70.07
2017-09-03T15:51:38.320Z,69.67
2017-09-03T15:54:06.199Z,70.16
2017-09-03T15:56:34.032Z,70.21
2017-09-03T15:59:01.774Z,69.52
2017-09-03T16:01:29.522Z,70.01
2017-09-03T16:03:57.298Z,70.70
2017-09-03T16:06:25.042Z,71.23
2017-09-03T16:08:52.837Z,70.68
2017-09-03T16:11:20.610Z,70.29
2017-09-03T16:13:48.337Z,71.55
2017-09-03T16:16:16.107Z,71.49
2017-09-03T16:18:43.897Z,70.54
2017-09-03T16:21:11.615Z,71.34
2017-09-03T16:23:39.723Z,71.83
2017-09-03T16:26:07.506Z,72.17
2017-09-03T16:28:35.264Z,72.12
2017-09-03T16:31:03.093Z,72.06
2017-09-03T16:33:30.845Z,73.62
2017-09-03T16:35:58.756Z,71.06
2017-09-03T16:38:26.489Z,71.69
2017-09-03T16:40:54.220Z,73.00
2017-09-03T16:43:21.964Z,72.03
2017-09-03T16:45:50.181Z,72.30
2017-09-03T16:48:18.083Z,72.08
2017-09-03T16:50:45.883Z,71.28
2017-09-03T16:53:13.745Z,71.85
2017-09-03T16:55:41.669Z,71.62
2017-09-03T16:58:09.561Z,70.94
2017-09-03T17:00:39.478Z,73.15
2017-09-03T17:03:07.255Z,73.76
2017-09-03T17:05:35.157Z,72.48
2017-09-03T17:08:02.991Z,72.20
2017-09-03T17:10:30.807Z,72.73
2017-09-03T17:12:58.639Z,72.12
2017-09-03T17:15:26.423Z,73.55
2017-09-03T17:17:54.541Z,73.13
2017-09-03T17:20:23.023Z,73.07
2017-09-03T17:22:50.836Z,72.59
2017-09-03T17:25:18.760Z,72.21
2017-09-03T17:27:46.529Z,72.50
2017-09-03T17:30:14.932Z,71.04
2017-09-03T17:32:42.800Z,71.90
2017-09-03T17:35:11.440Z,72.10
2017-09-03T17:37:41.079Z,70.97
2017-09-03T17:40:09.347Z,70.47
2017-09-03T17:42:48.863Z,71.09
2017-09-03T17:45:16.636Z,73.39
2017-09-03T17:47:44.374Z,73.87
2017-09-03T17:50:12.185Z,75.50
2017-09-03T17:52:39.976Z,77.08
2017-09-03T17:55:08.650Z,76.85
2017-09-03T17:57:36.587Z,79.01
2017-09-03T18:00:04.631Z,79.53
2017-09-03T18:02:32.572Z,78.72
2017-09-03T18:05:00.500Z,79.53
2017-09-03T18:07:28.388Z,80.97
2017-09-03T18:09:56.241Z,81.79
2017-09-03T18:12:24.085Z,81.97
2017-09-03T18:14:52.047Z,82.61
2017-09-03T18:17:19.914Z,83.86
2017-09-03T18:19:48.188Z,83.61
2017-09-03T18:22:15.960Z,82.35
2017-09-03T18:24:45.961Z,82.79
2017-09-03T18:27:13.802Z,82.48
2017-09-03T18:29:45.476Z,83.28
2017-09-03T18:32:13.765Z,83.90
2017-09-03T18:34:42.374Z,82.92
2017-09-03T18:37:13.130Z,82.65
2017-09-03T18:39:46.451Z,84.02
2017-09-03T18:42:30.983Z,84.39
2017-09-03T18:44:59.357Z,83.89
2017-09-03T18:47:27.277Z,84.13
2017-09-03T18:50:00.654Z,84.02
2017-09-03T18:52:30.724Z,86.09
2017-09-03T18:55:01.511Z,84.74
2017-09-03T18:57:40.090Z,84.60
2017-09-03T19:00:13.782Z,84.94
2017-09-03T19:02:41.764Z,84.97
2017-09-03T19:05:24.519Z,85.34
2017-09-03T19:07:53.866Z,83.83
2017-09-03T19:10:21.784Z,85.01
2017-09-03T19:12:49.657Z,84.76
2017-09-03T19:15:19.850Z,84.68
2017-09-03T19:17:49.083Z,84.79
2017-09-03T19:20:17.060Z,84.68
2017-09-03T19:22:44.926Z,84.70
2017-09-03T19:25:13.804Z,84.63
2017-09-03T19:27:41.665Z,84.86
2017-09-03T19:30:10.202Z,85.27
2017-09-03T19:32:38.134Z,84.91
2017-09-03T19:35:06.701Z,85.60
2017-09-03T19:37:44.694Z,85.50
2017-09-03T19:40:13.485Z,86.13
2017-09-03T19:42:42.725Z,86.54
2017-09-03T19:45:11.403Z,86.71
2017-09-03T19:47:39.221Z,86.57
2017-09-03T19:50:06.999Z,86.42
2017-09-03T19:52:35.233Z,85.69
2017-09-03T19:55:03.735Z,85.52
2017-09-03T19:57:31.451Z,85.09
2017-09-03T20:00:00.374Z,85.35
2017-09-03T20:02:28.310Z,85.57
2017-09-03T20:04:56.917Z,85.51
2017-09-03T20:07:26.545Z,85.93
2017-09-03T20:09:55.506Z,86.39
2017-09-03T20:12:27.117Z,86.35
2017-09-03T20:14:54.847Z,86.12
2017-09-03T20:17:22.736Z,86.50
2017-09-03T20:19:50.571Z,86.63
2017-09-03T20:22:18.336Z,86.51
2017-09-03T20:24:46.114Z,85.67
2017-09-03T20:27:13.829Z,85.85
2017-09-03T20:29:41.598Z,85.61
2017-09-03T20:32:09.308Z,85.48
2017-09-03T20:34:37.067Z,85.43
2017-09-03T20:37:04.863Z,86.37
2017-09-03T20:39:32.674Z,86.03
2017-09-03T20:42:01.229Z,86.04
2017-09-03T20:44:28.993Z,86.54
2017-09-03T20:46:56.889Z,86.68
2017-09-03T20:49:25.622Z,86.90
2017-09-03T20:51:53.315Z,86.85
2017-09-03T20:54:21.691Z,87.68
2017-09-03T20:56:49.509Z,86.96
2017-09-03T20:59:18.177Z,87.10
2017-09-03T21:01:45.934Z,87.22
2017-09-03T21:04:13.717Z,86.89
2017-09-03T21:06:41.667Z,87.57
2017-09-03T21:09:11.219Z,87.05
2017-09-03T21:11:39.002Z,86.11
2017-09-03T21:14:06.745Z,86.75
2017-09-03T21:16:34.527Z,86.25
2017-09-03T21:19:03.320Z,86.18
2017-09-03T21:21:32.023Z,86.90
2017-09-03T21:23:59.952Z,86.82
2017-09-03T21:53:39.897Z,87.70
2017-09-03T21:56:07.625Z,87.94
2017-09-03T21:58:36.231Z,87.66
2017-09-03T22:01:03.978Z,87.40
2017-09-03T22:03:33.073Z,87.91
2017-09-03T22:06:03.616Z,88.62
2017-09-03T22:08:31.430Z,89.04
2017-09-03T22:10:59.711Z,88.39
2017-09-03T22:13:28.277Z,88.34
2017-09-03T22:15:57.233Z,88.21
2017-09-03T22:18:25.238Z,88.06
2017-09-03T22:20:55.991Z,88.06
2017-09-03T22:23:25.540Z,88.15
2017-09-03T22:25:54.361Z,87.80
2017-09-03T22:28:22.084Z,88.22
2017-09-03T22:30:49.871Z,88.76
2017-09-03T22:33:17.562Z,88.27
2017-09-03T22:35:45.276Z,88.35
2017-09-03T22:38:13.033Z,88.53
2017-09-03T22:40:40.850Z,89.01
2017-09-03T22:43:08.583Z,88.93
2017-09-03T22:45:36.423Z,88.70
2017-09-03T22:48:04.208Z,88.87
2017-09-03T22:50:31.967Z,88.27
2017-09-03T22:52:59.730Z,87.75
2017-09-03T22:55:28.276Z,87.89
2017-09-03T22:57:55.987Z,89.14
2017-09-03T23:00:23.759Z,89.16
2017-09-03T23:02:51.622Z,88.07
2017-09-03T23:05:19.325Z,88.17
2017-09-03T23:07:47.022Z,87.81
2017-09-03T23:10:14.764Z,87.86
2017-09-03T23:12:42.514Z,87.46
2017-09-03T23:15:10.187Z,87.63
2017-09-03T23:17:37.975Z,87.96
2017-09-03T23:20:05.682Z,88.44
2017-09-03T23:22:35.281Z,87.77
2017-09-03T23:25:03.035Z,87.26
2017-09-03T23:27:30.791Z,87.26
2017-09-03T23:29:58.502Z,87.66
2017-09-03T23:32:26.266Z,88.00
2017-09-03T23:34:54.633Z,88.75
2017-09-03T23:37:23.253Z,88.58
2017-09-03T23:39:51.044Z,88.28
2017-09-03T23:42:18.772Z,87.73
2017-09-03T23:44:46.503Z,87.67
2017-09-03T23:47:14.247Z,87.91
2017-09-03T23:49:42.021Z,87.92
2017-09-03T23:52:10.461Z,87.56
2017-09-03T23:54:38.288Z,88.04
2017-09-03T23:57:06.007Z,87.88
2017-09-03T23:59:34.028Z,88.59
